createdAt,value
2022-10-09T00:04:02.161Z,10.70
2022-10-09T00:08:06.457Z,10.50
2022-10-09T00:12:08.544Z,10.50
2022-10-09T00:16:13.483Z,10.40
2022-10-09T00:20:17.351Z,10.40
2022-10-09T00:24:21.307Z,10.30
2022-10-09T00:28:25.635Z,10.30
2022-10-09T00:32:28.524Z,10.30
2022-10-09T00:36:32.614Z,10.30
2022-10-09T00:40:37.432Z,10.20
2022-10-09T00:44:48.399Z,10.10
2022-10-09T00:49:17.557Z,10.10
2022-10-09T00:53:23.585Z,10.00
2022-10-09T00:57:26.743Z,9.90
2022-10-09T01:01:31.150Z,9.80
2022-10-09T01:05:51.106Z,9.80
2022-10-09T01:10:18.981Z,9.70
2022-10-09T01:14:35.821Z,9.60
2022-10-09T01:18:46.652Z,9.50
2022-10-09T01:23:28.956Z,9.40
2022-10-09T01:27:33.709Z,9.40
2022-10-09T01:31:51.605Z,9.30
2022-10-09T01:35:54.718Z,9.20
2022-10-09T01:40:00.076Z,9.10
2022-10-09T01:44:04.596Z,9.10
2022-10-09T01:48:10.764Z,9.00
2022-10-09T01:52:22.681Z,8.90
2022-10-09T01:56:31.470Z,8.90
2022-10-09T02:05:15.579Z,8.80
2022-10-09T02:09:18.680Z,8.70
2022-10-09T02:13:22.284Z,8.60
2022-10-09T02:17:33.503Z,8.40
2022-10-09T02:22:06.651Z,8.50
2022-10-09T02:26:14.142Z,8.50
2022-10-09T02:30:19.298Z,8.50
2022-10-09T02:34:22.590Z,8.50
2022-10-09T02:38:25.899Z,8.40
2022-10-09T02:42:29.101Z,8.40
2022-10-09T02:46:34.336Z,8.30
2022-10-09T02:50:42.115Z,8.30
2022-10-09T02:54:45.960Z,8.30
2022-10-09T02:58:49.732Z,8.30
2022-10-09T03:02:59.825Z,8.20
2022-10-09T03:07:04.725Z,8.20
2022-10-09T03:11:15.087Z,8.10
2022-10-09T03:15:17.865Z,8.10
2022-10-09T03:19:22.408Z,8.00
2022-10-09T03:23:29.738Z,8.00
2022-10-09T03:27:34.936Z,8.00
2022-10-09T03:31:51.877Z,8.00
2022-10-09T03:35:58.881Z,7.90
2022-10-09T03:40:02.790Z,7.90
2022-10-09T03:44:08.021Z,7.90
2022-10-09T03:48:13.854Z,7.80
2022-10-09T03:52:15.965Z,7.70
2022-10-09T03:56:24.850Z,7.60
2022-10-09T04:00:32.085Z,7.60
2022-10-09T04:04:36.845Z,7.60
2022-10-09T04:08:40.972Z,7.60
2022-10-09T04:12:50.541Z,7.50
2022-10-09T04:16:55.882Z,7.50
2022-10-09T04:21:00.390Z,7.50
2022-10-09T04:25:06.251Z,7.50
2022-10-09T04:29:12.079Z,7.40
2022-10-09T04:33:17.747Z,7.40
2022-10-09T04:37:20.947Z,7.40
2022-10-09T04:41:25.775Z,7.30
2022-10-09T04:45:32.153Z,7.30
2022-10-09T04:49:39.390Z,7.30
2022-10-09T04:53:45.140Z,7.30
2022-10-09T04:57:50.904Z,7.30
2022-10-09T05:01:56.808Z,7.30
2022-10-09T05:06:08.103Z,7.30
2022-10-09T05:10:28.506Z,7.30
2022-10-09T05:14:31.861Z,7.30
2022-10-09T05:18:40.513Z,7.30
2022-10-09T05:22:48.580Z,7.30
2022-10-09T05:26:53.753Z,7.40
2022-10-09T05:31:00.277Z,7.40
2022-10-09T05:35:06.746Z,7.50
2022-10-09T05:39:11.689Z,7.50
2022-10-09T05:43:19.319Z,7.60
2022-10-09T05:47:26.434Z,7.60
2022-10-09T05:51:35.880Z,7.70
2022-10-09T05:55:38.955Z,7.70
2022-10-09T05:59:45.305Z,7.70
2022-10-09T06:04:04.416Z,7.70
2022-10-09T06:08:13.314Z,7.70
2022-10-09T06:12:16.928Z,7.80
2022-10-09T06:16:19.507Z,7.90
2022-10-09T06:20:23.597Z,8.00
2022-10-09T06:24:30.736Z,8.10
2022-10-09T06:28:39.561Z,8.20
2022-10-09T06:32:46.332Z,8.30
2022-10-09T06:36:50.884Z,8.40
2022-10-09T06:40:55.894Z,8.30
2022-10-09T06:45:02.030Z,8.20
2022-10-09T06:49:13.134Z,8.20
2022-10-09T06:53:23.901Z,8.10
2022-10-09T06:57:26.541Z,8.20
2022-10-09T07:01:32.923Z,8.30
2022-10-09T07:05:37.224Z,8.40
2022-10-09T07:09:46.963Z,8.50
2022-10-09T07:13:56.995Z,8.60
2022-10-09T07:18:05.700Z,8.70
2022-10-09T07:22:12.624Z,8.70
2022-10-09T07:26:21.933Z,8.70
2022-10-09T07:30:27.396Z,8.70
2022-10-09T07:34:29.700Z,8.80
2022-10-09T07:38:33.087Z,8.80
2022-10-09T07:42:35.520Z,9.10
2022-10-09T07:46:43.823Z,9.20
2022-10-09T07:50:47.629Z,9.30
2022-10-09T07:54:51.190Z,9.40
2022-10-09T07:59:11.030Z,9.40
2022-10-09T08:03:13.206Z,9.50
2022-10-09T08:07:17.933Z,9.60
2022-10-09T08:11:22.341Z,9.70
2022-10-09T08:15:24.722Z,9.90
2022-10-09T08:19:41.552Z,10.00
2022-10-09T08:23:45.618Z,10.10
2022-10-09T08:27:50.512Z,10.20
2022-10-09T08:31:53.498Z,10.30
2022-10-09T08:36:10.883Z,10.40
2022-10-09T08:41:01.166Z,10.70
2022-10-09T08:45:05.309Z,10.90
2022-10-09T08:53:54.138Z,11.20
2022-10-09T08:58:01.413Z,11.10
2022-10-09T09:07:26.426Z,11.00
2022-10-09T09:16:46.182Z,11.10
2022-10-09T09:21:08.749Z,11.00
2022-10-09T09:25:38.465Z,11.00
2022-10-09T09:30:00.785Z,11.00
2022-10-09T09:34:17.637Z,10.90
2022-10-09T09:38:32.464Z,11.10
2022-10-09T09:42:41.670Z,11.20
2022-10-09T09:46:51.985Z,11.20
2022-10-09T09:51:16.294Z,11.10
2022-10-09T09:59:46.904Z,11.20
2022-10-09T10:08:38.146Z,11.40
2022-10-09T10:13:00.399Z,11.50
2022-10-09T10:17:05.309Z,11.70
2022-10-09T10:21:17.481Z,11.70
2022-10-09T10:25:31.302Z,11.70
2022-10-09T10:38:32.216Z,11.90
2022-10-09T10:42:48.798Z,12.10
2022-10-09T10:47:08.507Z,12.10
2022-10-09T10:51:32.938Z,11.90
2022-10-09T10:56:04.279Z,11.90
2022-10-09T11:00:13.891Z,12.10
2022-10-09T11:04:49.260Z,12.40
2022-10-09T11:09:15.972Z,12.40
2022-10-09T11:13:32.595Z,12.50
2022-10-09T11:18:13.082Z,12.50
2022-10-09T11:22:22.612Z,12.70
2022-10-09T11:27:03.859Z,12.60
2022-10-09T11:31:18.035Z,12.40
2022-10-09T11:35:30.441Z,12.70
2022-10-09T11:39:34.840Z,12.90
2022-10-09T11:43:59.120Z,12.90
2022-10-09T11:48:14.648Z,13.00
2022-10-09T11:52:58.427Z,12.80
2022-10-09T11:57:06.601Z,12.70
2022-10-09T12:01:28.008Z,12.70
2022-10-09T12:05:43.958Z,12.60
2022-10-09T12:09:49.333Z,12.90
2022-10-09T12:14:02.600Z,13.00
2022-10-09T12:18:47.507Z,12.90
2022-10-09T12:23:25.102Z,13.00
2022-10-09T12:27:32.543Z,13.10
2022-10-09T12:32:00.207Z,13.40
2022-10-09T12:36:23.413Z,13.40
2022-10-09T12:40:32.042Z,13.30
2022-10-09T12:44:42.940Z,13.20
2022-10-09T12:48:48.125Z,13.30
2022-10-09T12:53:17.544Z,13.50
2022-10-09T12:57:25.327Z,13.40
2022-10-09T13:01:32.749Z,13.60
2022-10-09T13:05:41.056Z,13.30
2022-10-09T13:09:44.817Z,13.40
2022-10-09T13:13:55.461Z,13.30
2022-10-09T13:17:57.488Z,13.30
2022-10-09T13:22:20.106Z,13.40
2022-10-09T13:26:28.277Z,13.40
2022-10-09T13:30:43.814Z,13.20
2022-10-09T13:34:47.964Z,13.60
2022-10-09T13:38:50.976Z,13.80
2022-10-09T13:42:56.619Z,13.70
2022-10-09T13:47:01.905Z,13.50
2022-10-09T13:51:13.782Z,13.30
2022-10-09T13:55:18.117Z,13.40
2022-10-09T13:59:21.817Z,13.20
2022-10-09T14:03:24.426Z,13.30
2022-10-09T14:07:27.001Z,13.40
2022-10-09T14:11:36.878Z,13.30
2022-10-09T14:15:40.397Z,13.00
2022-10-09T14:19:44.379Z,12.90
2022-10-09T14:23:48.547Z,12.70
2022-10-09T14:27:51.026Z,12.70
2022-10-09T14:31:54.374Z,12.60
2022-10-09T14:36:04.605Z,12.40
2022-10-09T14:40:07.226Z,12.40
2022-10-09T14:44:17.541Z,12.30
2022-10-09T14:52:37.625Z,12.20
2022-10-09T14:56:42.758Z,12.20
2022-10-09T15:00:50.653Z,12.20
2022-10-09T15:04:54.220Z,12.10
2022-10-09T15:09:03.217Z,12.10
2022-10-09T15:13:16.268Z,12.10
2022-10-09T15:17:22.872Z,12.10
2022-10-09T15:21:36.331Z,11.80
2022-10-09T15:25:49.942Z,11.60
2022-10-09T15:29:52.228Z,11.40
2022-10-09T15:33:56.336Z,11.30
2022-10-09T15:37:59.818Z,11.10
2022-10-09T15:42:06.980Z,10.90
2022-10-09T15:46:11.748Z,10.80
2022-10-09T15:50:16.980Z,10.70
2022-10-09T15:54:18.954Z,10.50
2022-10-09T15:58:21.534Z,10.50
2022-10-09T16:02:26.409Z,10.40
2022-10-09T16:06:29.952Z,10.30
2022-10-09T16:10:34.936Z,10.10
2022-10-09T16:14:41.042Z,9.90
2022-10-09T16:23:09.705Z,9.60
2022-10-09T16:27:15.752Z,9.60
2022-10-09T16:31:35.669Z,9.50
2022-10-09T16:35:44.089Z,9.30
2022-10-09T16:39:52.631Z,9.20
2022-10-09T16:43:58.093Z,9.10
2022-10-09T16:52:46.646Z,8.90
2022-10-09T17:01:18.953Z,8.90
2022-10-09T17:05:33.716Z,8.80
2022-10-09T17:18:21.784Z,8.60
2022-10-09T17:22:42.418Z,8.60
2022-10-09T17:26:53.696Z,8.60
2022-10-09T17:35:30.633Z,8.40
2022-10-09T17:39:44.125Z,8.30
2022-10-09T17:43:58.370Z,8.20
2022-10-09T17:48:05.667Z,8.10
2022-10-09T17:52:19.434Z,8.00
2022-10-09T18:00:52.172Z,7.90
2022-10-09T18:05:22.029Z,7.90
2022-10-09T18:09:45.005Z,7.90
2022-10-09T18:14:06.370Z,7.90
2022-10-09T18:23:10.466Z,7.80
2022-10-09T18:27:30.598Z,7.70
2022-10-09T18:31:57.468Z,7.70
2022-10-09T18:36:32.022Z,7.70
2022-10-09T18:45:02.921Z,7.60
2022-10-09T18:49:14.581Z,7.60
2022-10-09T18:53:30.705Z,7.50
2022-10-09T18:57:39.926Z,7.50
2022-10-09T19:06:25.878Z,7.40
2022-10-09T19:15:11.741Z,7.30
2022-10-09T19:24:12.774Z,7.20
2022-10-09T19:37:39.451Z,7.20
2022-10-09T19:46:25.461Z,7.10
2022-10-09T19:50:47.481Z,7.10
2022-10-09T20:00:14.963Z,7.00
2022-10-09T20:04:33.596Z,6.90
2022-10-09T20:08:51.027Z,6.90
2022-10-09T20:22:40.947Z,6.80
2022-10-09T20:36:53.965Z,6.70
2022-10-09T20:46:15.949Z,6.60
2022-10-09T21:00:43.699Z,6.50
2022-10-09T21:05:02.384Z,6.40
2022-10-09T21:09:33.445Z,6.40
2022-10-09T21:27:35.535Z,6.20
2022-10-09T21:36:35.158Z,6.10
2022-10-09T21:41:11.864Z,6.20
2022-10-09T21:46:01.119Z,6.20
2022-10-09T21:50:37.998Z,6.10
2022-10-09T22:09:28.845Z,5.80
2022-10-09T23:28:56.214Z,5.50
